createdAt,value
2017-09-13T00:00:17.384Z,94863.16
2017-09-13T00:02:45.050Z,94864.71
2017-09-13T00:05:12.753Z,94860.56
2017-09-13T00:07:40.354Z,94867.02
2017-09-13T00:10:07.930Z,94873.13
2017-09-13T00:12:35.502Z,94874.30
2017-09-13T00:15:03.063Z,94880.76
2017-09-13T00:17:30.777Z,94882.30
2017-09-13T00:19:59.206Z,94885.95
2017-09-13T00:22:26.849Z,94889.37
2017-09-13T00:24:54.613Z,94889.39
2017-09-13T00:27:22.124Z,94891.89
2017-09-13T00:29:49.682Z,94896.27
2017-09-13T00:32:17.940Z,94894.39
2017-09-13T00:34:46.802Z,94898.19
2017-09-13T00:37:14.444Z,94897.45
2017-09-13T00:39:42.103Z,94901.64
2017-09-13T00:42:09.766Z,94896.53
2017-09-13T00:44:37.437Z,94902.27
2017-09-13T00:47:06.167Z,94891.63
2017-09-13T00:49:33.836Z,94896.38
2017-09-13T00:52:01.575Z,94888.10
2017-09-13T00:54:29.202Z,94898.70
2017-09-13T00:56:56.844Z,94897.95
2017-09-13T00:59:24.580Z,94902.91
2017-09-13T01:01:52.312Z,94903.35
2017-09-13T01:04:20.114Z,94907.25
2017-09-13T01:06:48.603Z,94911.22
2017-09-13T01:09:16.645Z,94910.02
2017-09-13T01:14:18.310Z,94901.72
2017-09-13T01:16:45.968Z,94900.34
2017-09-13T01:19:13.748Z,94899.25
2017-09-13T01:21:41.395Z,94904.67
2017-09-13T01:24:09.104Z,94916.14
2017-09-13T01:26:36.753Z,94912.02
2017-09-13T01:29:04.318Z,94913.91
2017-09-13T01:31:31.942Z,94918.09
2017-09-13T01:33:59.525Z,94919.47
2017-09-13T01:36:27.187Z,94919.20
2017-09-13T01:38:54.787Z,94926.64
2017-09-13T01:41:22.398Z,94927.59
2017-09-13T01:43:50.076Z,94927.40
2017-09-13T01:46:17.783Z,94922.67
2017-09-13T01:51:23.882Z,94918.39
2017-09-13T01:53:51.697Z,94919.17
2017-09-13T01:56:19.493Z,94923.32
2017-09-13T01:58:47.286Z,94926.38
2017-09-13T02:04:00.444Z,94927.71
2017-09-13T02:06:28.480Z,94927.55
2017-09-13T02:08:56.204Z,94924.34
2017-09-13T02:11:26.771Z,94922.88
2017-09-13T02:13:54.355Z,94923.80
2017-09-13T02:16:21.944Z,94927.42
2017-09-13T02:19:10.883Z,94926.50
2017-09-13T02:21:38.588Z,94925.17
2017-09-13T02:24:06.449Z,94934.02
2017-09-13T02:26:44.825Z,94936.48
2017-09-13T02:29:12.427Z,94931.84
2017-09-13T02:31:40.043Z,94939.41
2017-09-13T02:34:28.896Z,94941.56
2017-09-13T02:36:56.588Z,94940.64
2017-09-13T02:39:24.267Z,94934.14
2017-09-13T02:41:51.861Z,94938.36
2017-09-13T02:44:19.423Z,94934.00
2017-09-13T02:46:47.051Z,94929.28
2017-09-13T02:49:14.726Z,94924.30
2017-09-13T02:51:42.363Z,94926.38
2017-09-13T02:54:09.939Z,94933.64
2017-09-13T02:56:37.608Z,94932.91
2017-09-13T02:59:05.783Z,94925.70
2017-09-13T03:01:33.468Z,94927.43
2017-09-13T03:04:01.051Z,94928.23
2017-09-13T03:06:49.475Z,94924.80
2017-09-13T03:09:17.041Z,94924.66
2017-09-13T03:11:44.732Z,94929.30
2017-09-13T03:14:13.211Z,94926.83
2017-09-13T03:16:42.641Z,94902.30
2017-09-13T03:19:10.331Z,94929.47
2017-09-13T03:21:37.936Z,94938.58
2017-09-13T03:24:20.990Z,94946.55
2017-09-13T03:26:48.687Z,94941.44
2017-09-13T03:29:16.273Z,94944.12
2017-09-13T03:34:40.907Z,94940.59
2017-09-13T03:37:08.510Z,94941.70
2017-09-13T03:39:36.139Z,94946.42
2017-09-13T03:42:03.764Z,94944.69
2017-09-13T03:44:32.087Z,94940.50
2017-09-13T03:47:17.347Z,94936.15
2017-09-13T03:49:45.000Z,94933.83
2017-09-13T03:52:12.639Z,94938.88
2017-09-13T03:54:41.340Z,94940.23
2017-09-13T03:57:08.954Z,94944.39
2017-09-13T03:59:36.499Z,94946.85
2017-09-13T04:02:04.346Z,94950.58
2017-09-13T04:04:31.994Z,94951.48
2017-09-13T04:07:03.350Z,94953.17
2017-09-13T04:09:46.076Z,94951.77
2017-09-13T04:12:13.727Z,94948.87
2017-09-13T04:14:41.400Z,94948.84
2017-09-13T04:17:19.864Z,94949.20
2017-09-13T04:19:47.625Z,94945.55
2017-09-13T04:22:15.177Z,94948.16
2017-09-13T04:24:42.747Z,94949.23
2017-09-13T04:29:50.990Z,94956.99
2017-09-13T04:32:19.230Z,94961.98
2017-09-13T04:34:46.833Z,94962.42
2017-09-13T04:37:14.513Z,94965.68
2017-09-13T04:39:43.004Z,94970.70
2017-09-13T04:42:13.736Z,94973.86
2017-09-13T04:47:15.263Z,94978.61
2017-09-13T04:49:43.078Z,94974.77
2017-09-13T04:52:10.790Z,94972.30
2017-09-13T04:54:38.505Z,94977.27
2017-09-13T04:57:06.088Z,94986.27
2017-09-13T04:59:35.052Z,94991.32
2017-09-13T05:02:03.280Z,94999.75
2017-09-13T05:04:30.911Z,94992.46
2017-09-13T05:07:05.945Z,94991.56
2017-09-13T05:09:33.583Z,94980.54
2017-09-13T05:14:52.772Z,94991.50
2017-09-13T05:17:21.073Z,94988.03
2017-09-13T05:19:49.741Z,94996.56
2017-09-13T05:22:21.675Z,95000.02
2017-09-13T05:27:35.056Z,94995.80
2017-09-13T05:30:13.578Z,95012.02
2017-09-13T05:35:17.239Z,95006.86
2017-09-13T05:37:45.561Z,95006.42
2017-09-13T05:48:24.560Z,95003.36
2017-09-13T05:50:55.726Z,95004.24
2017-09-13T05:53:30.435Z,95007.46
2017-09-13T06:17:05.089Z,95013.85
2017-09-13T06:22:37.387Z,95023.56
2017-09-13T06:27:41.520Z,95041.88
2017-09-13T06:30:13.929Z,95045.61
2017-09-13T06:33:17.426Z,95055.55
2017-09-13T06:43:18.671Z,95050.23
2017-09-13T06:45:51.794Z,95056.70
2017-09-13T06:48:30.280Z,95057.61
2017-09-13T06:51:05.374Z,95061.33
2017-09-13T06:53:45.778Z,95061.63
2017-09-13T06:56:13.797Z,95055.75
2017-09-13T07:01:18.235Z,95065.14
2017-09-13T07:10:01.606Z,95059.23
2017-09-13T08:08:19.317Z,95105.48
2017-09-13T08:11:02.795Z,95092.73
2017-09-13T08:58:26.308Z,95097.05
2017-09-13T09:01:26.768Z,95089.05
2017-09-13T09:20:52.127Z,95097.88
2017-09-13T09:30:01.888Z,95097.54
2017-09-13T09:38:40.624Z,95101.70
2017-09-13T10:04:29.614Z,95113.03
2017-09-13T10:06:58.041Z,95113.27
2017-09-13T10:14:53.978Z,95115.52
2017-09-13T10:17:21.900Z,95120.74
2017-09-13T10:19:49.741Z,95117.44
2017-09-13T10:31:14.646Z,95120.97
2017-09-13T10:33:43.027Z,95111.30
2017-09-13T10:36:16.375Z,95114.84
2017-09-13T10:41:55.238Z,95111.89
2017-09-13T10:46:55.270Z,95118.56
2017-09-13T11:05:45.462Z,95112.73
2017-09-13T11:08:13.961Z,95114.47
2017-09-13T11:10:43.685Z,95110.76
2017-09-13T11:13:15.315Z,95113.73
2017-09-13T11:21:47.229Z,95105.69
2017-09-13T11:24:16.683Z,95104.20
2017-09-13T11:26:45.360Z,95092.76
2017-09-13T11:29:17.408Z,95095.25
2017-09-13T11:31:55.926Z,95092.13
2017-09-13T11:34:26.574Z,95092.02
2017-09-13T11:42:15.965Z,95083.88
2017-09-13T11:47:15.652Z,95082.06
2017-09-13T11:49:52.299Z,95089.69
2017-09-13T11:52:23.492Z,95081.33
2017-09-13T11:54:52.735Z,95085.17
2017-09-13T12:00:07.051Z,95080.33
2017-09-13T12:05:08.627Z,95090.75
2017-09-13T12:07:53.814Z,95088.11
2017-09-13T12:12:54.408Z,95080.01
2017-09-13T12:15:22.307Z,95078.08
2017-09-13T12:17:51.091Z,95084.99
2017-09-13T12:23:34.101Z,95078.23
2017-09-13T12:26:04.795Z,95079.95
2017-09-13T12:28:35.507Z,95081.60
2017-09-13T12:31:05.316Z,95082.91
2017-09-13T12:36:10.276Z,95074.96
2017-09-13T12:38:38.549Z,95084.77
2017-09-13T12:46:33.864Z,95082.20
2017-09-13T12:49:08.727Z,95080.91
2017-09-13T12:57:43.616Z,95090.14
2017-09-13T13:10:44.481Z,95089.66
2017-09-13T13:18:54.161Z,95097.88
2017-09-13T13:23:55.411Z,95094.45
2017-09-13T13:26:24.974Z,95090.48
2017-09-13T13:28:53.853Z,95092.81
2017-09-13T13:31:37.496Z,95086.67
2017-09-13T13:34:09.772Z,95082.67
2017-09-13T13:36:41.945Z,95078.55
2017-09-13T13:41:44.052Z,95081.03
2017-09-13T13:55:20.111Z,95098.00
2017-09-13T13:57:47.893Z,95088.96
2017-09-13T14:24:34.419Z,95103.23
2017-09-13T14:27:06.157Z,95102.35
2017-09-13T14:32:12.374Z,95103.69
2017-09-13T14:34:40.073Z,95099.87
2017-09-13T14:37:09.208Z,95096.75
2017-09-13T14:39:38.520Z,95099.03
2017-09-13T14:42:11.201Z,95096.25
2017-09-13T14:44:40.981Z,95092.20
2017-09-13T14:47:10.007Z,95095.11
2017-09-13T14:49:43.090Z,95093.62
2017-09-13T14:57:17.243Z,95090.95
2017-09-13T15:07:29.215Z,95097.47
2017-09-13T15:15:08.021Z,95109.61
2017-09-13T15:25:23.029Z,95108.77
2017-09-13T15:38:08.063Z,95116.63
2017-09-13T15:40:36.032Z,95117.11
2017-09-13T15:45:37.072Z,95116.23
2017-09-13T16:04:03.333Z,95134.55
2017-09-13T16:06:43.797Z,95126.95
2017-09-13T16:09:12.287Z,95127.21
2017-09-13T16:19:20.422Z,95123.13
2017-09-13T16:21:49.620Z,95120.34
2017-09-13T16:24:19.970Z,95122.86
2017-09-13T16:26:47.709Z,95121.38
2017-09-13T16:29:30.131Z,95126.18
2017-09-13T16:31:59.760Z,95126.78
2017-09-13T16:37:01.641Z,95132.04
2017-09-13T16:39:36.833Z,95126.66
2017-09-13T16:42:04.508Z,95128.41
2017-09-13T16:44:32.938Z,95136.77
2017-09-13T16:54:50.016Z,95151.63
2017-09-13T16:57:17.674Z,95148.41
2017-09-13T16:59:45.343Z,95155.50
2017-09-13T17:02:23.892Z,95159.92
2017-09-13T17:04:52.032Z,95160.30
2017-09-13T17:07:20.604Z,95172.69
2017-09-13T17:12:21.430Z,95169.80
2017-09-13T17:14:49.271Z,95168.09
2017-09-13T17:22:58.445Z,95184.06
2017-09-13T17:25:26.343Z,95186.34
2017-09-13T17:27:53.913Z,95185.62
2017-09-13T17:30:21.907Z,95186.03
2017-09-13T17:35:34.916Z,95196.42
2017-09-13T17:38:02.643Z,95193.67
2017-09-13T17:40:30.227Z,95197.20
2017-09-13T17:42:57.805Z,95197.42
2017-09-13T17:45:31.022Z,95201.30
2017-09-13T17:50:31.747Z,95213.05
2017-09-13T17:52:59.348Z,95212.38
2017-09-13T17:55:27.138Z,95219.64
2017-09-13T18:05:33.967Z,95225.16
2017-09-13T18:08:09.209Z,95220.47
2017-09-13T18:10:38.643Z,95224.47
2017-09-13T18:13:10.296Z,95230.63
2017-09-13T18:15:42.524Z,95223.41
2017-09-13T18:20:46.886Z,95232.09
2017-09-13T18:23:14.534Z,95240.67
2017-09-13T18:25:42.294Z,95236.34
2017-09-13T18:28:10.045Z,95231.11
2017-09-13T18:30:37.706Z,95230.16
2017-09-13T18:33:05.319Z,95226.75
2017-09-13T18:35:34.242Z,95231.38
2017-09-13T18:38:02.346Z,95240.17
2017-09-13T18:40:31.218Z,95231.81
2017-09-13T18:43:05.208Z,95237.94
2017-09-13T18:48:08.594Z,95227.72
2017-09-13T18:50:39.005Z,95229.30
2017-09-13T18:53:06.581Z,95241.09
2017-09-13T18:55:34.123Z,95232.17
2017-09-13T18:58:01.929Z,95233.38
2017-09-13T19:00:29.495Z,95237.78
2017-09-13T19:02:58.078Z,95245.23
2017-09-13T19:05:25.914Z,95241.64
2017-09-13T19:10:27.317Z,95244.55
2017-09-13T19:12:55.195Z,95243.82
2017-09-13T19:15:22.864Z,95248.58
2017-09-13T19:17:50.734Z,95244.83
2017-09-13T19:20:20.436Z,95244.09
2017-09-13T19:22:49.413Z,95254.77
2017-09-13T19:25:17.100Z,95254.83
2017-09-13T19:27:44.673Z,95261.67
2017-09-13T19:30:12.324Z,95264.20
2017-09-13T19:32:40.638Z,95267.30
2017-09-13T19:35:09.123Z,95267.92
2017-09-13T19:37:37.814Z,95267.78
2017-09-13T19:47:51.910Z,95279.12
2017-09-13T19:53:00.402Z,95277.13
2017-09-13T19:55:28.039Z,95277.53
2017-09-13T19:57:55.633Z,95290.49
2017-09-13T20:00:23.429Z,95290.19
2017-09-13T20:02:50.970Z,95280.11
2017-09-13T20:05:19.524Z,95292.11
2017-09-13T20:07:47.093Z,95283.41
2017-09-13T20:10:14.635Z,95287.81
2017-09-13T20:12:42.553Z,95285.38
2017-09-13T20:15:10.080Z,95288.80
2017-09-13T20:17:37.684Z,95289.59
2017-09-13T20:20:05.386Z,95295.31
2017-09-13T20:22:32.921Z,95293.27
2017-09-13T20:25:00.467Z,95298.80
2017-09-13T20:27:28.068Z,95292.00
2017-09-13T20:29:55.701Z,95288.95
2017-09-13T20:32:23.263Z,95288.80
2017-09-13T20:34:50.880Z,95293.02
2017-09-13T20:37:18.445Z,95293.42
2017-09-13T20:39:46.080Z,95293.83
2017-09-13T20:42:14.001Z,95294.39
2017-09-13T20:44:41.539Z,95289.30
2017-09-13T20:47:09.149Z,95292.16
2017-09-13T20:49:36.789Z,95296.00
2017-09-13T20:52:04.378Z,95291.84
2017-09-13T20:54:31.918Z,95297.56
2017-09-13T20:56:59.566Z,95294.36
2017-09-13T20:59:27.167Z,95297.42
2017-09-13T21:01:54.758Z,95298.00
2017-09-13T21:04:22.475Z,95291.56
2017-09-13T21:06:50.056Z,95295.02
2017-09-13T21:09:18.115Z,95300.14
2017-09-13T21:11:45.777Z,95302.09
2017-09-13T21:14:13.371Z,95292.77
2017-09-13T21:16:41.385Z,95288.06
2017-09-13T21:19:09.113Z,95290.91
2017-09-13T21:21:37.248Z,95285.42
2017-09-13T21:24:06.651Z,95285.98
2017-09-13T21:26:34.278Z,95286.19
2017-09-13T21:29:01.888Z,95292.48
2017-09-13T21:31:29.642Z,95288.66
2017-09-13T21:33:57.431Z,95295.55
2017-09-13T21:36:26.059Z,95290.05
2017-09-13T21:38:53.746Z,95290.08
2017-09-13T21:41:21.376Z,95290.47
2017-09-13T21:43:49.003Z,95290.48
2017-09-13T21:46:16.690Z,95292.42
2017-09-13T21:48:46.547Z,95294.88
2017-09-13T21:51:15.846Z,95293.38
2017-09-13T22:01:52.641Z,95298.57
2017-09-13T22:04:20.301Z,95301.25
2017-09-13T22:10:01.624Z,95307.96
2017-09-13T22:12:29.207Z,95299.78
2017-09-13T22:14:56.806Z,95303.77
2017-09-13T22:17:24.384Z,95310.26
2017-09-13T22:19:52.010Z,95309.33
2017-09-13T22:22:21.212Z,95310.48
2017-09-13T22:24:49.042Z,95302.38
2017-09-13T22:27:16.724Z,95311.06
2017-09-13T22:29:44.414Z,95310.52
2017-09-13T22:32:12.021Z,95313.58
2017-09-13T22:34:39.659Z,95314.19
2017-09-13T22:37:07.307Z,95310.20
2017-09-13T22:39:34.905Z,95318.19
2017-09-13T22:42:02.543Z,95319.92
2017-09-13T22:44:30.294Z,95321.98
2017-09-13T22:46:57.823Z,95315.95
2017-09-13T22:49:25.533Z,95308.15
2017-09-13T22:51:53.068Z,95309.69
2017-09-13T22:54:20.694Z,95314.84
2017-09-13T22:56:48.398Z,95314.86
2017-09-13T22:59:16.133Z,95314.11
2017-09-13T23:01:44.115Z,95309.39
2017-09-13T23:04:13.062Z,95308.79
2017-09-13T23:06:40.628Z,95311.50
2017-09-13T23:09:09.181Z,95308.64
2017-09-13T23:14:09.830Z,95305.05
2017-09-13T23:19:09.917Z,95308.31
2017-09-13T23:21:37.564Z,95309.66
2017-09-13T23:24:05.164Z,95310.05
2017-09-13T23:26:32.805Z,95312.16
2017-09-13T23:29:00.392Z,95311.96
2017-09-13T23:31:29.275Z,95312.73
2017-09-13T23:33:57.224Z,95308.75
2017-09-13T23:36:25.749Z,95311.41
2017-09-13T23:38:53.334Z,95317.50
2017-09-13T23:41:21.069Z,95311.84
2017-09-13T23:43:48.807Z,95317.73
2017-09-13T23:46:16.662Z,95316.59
2017-09-13T23:48:44.287Z,95319.45
2017-09-13T23:51:11.810Z,95317.38
2017-09-13T23:53:39.381Z,95320.81
2017-09-13T23:56:06.967Z,95312.11
2017-09-13T23:58:34.596Z,95322.93
